createdAt,value
2019-05-06T00:01:07.788Z,99.90
2019-05-06T00:06:08.979Z,99.90
2019-05-06T00:11:10.099Z,99.90
2019-05-06T00:16:14.196Z,99.90
2019-05-06T00:21:14.946Z,99.90
2019-05-06T00:26:20.817Z,99.90
2019-05-06T00:31:24.029Z,99.90
2019-05-06T00:36:25.292Z,99.90
2019-05-06T00:41:28.302Z,99.90
2019-05-06T00:46:29.418Z,99.90
2019-05-06T00:51:30.504Z,99.90
2019-05-06T00:56:33.786Z,99.90
2019-05-06T01:01:34.927Z,99.90
2019-05-06T01:06:36.011Z,99.90
2019-05-06T01:11:37.207Z,99.90
2019-05-06T01:16:38.413Z,99.90
2019-05-06T01:21:39.497Z,99.90
2019-05-06T01:26:40.583Z,99.90
2019-05-06T01:31:45.307Z,99.90
2019-05-06T01:36:44.683Z,99.90
2019-05-06T01:41:50.673Z,99.90
2019-05-06T01:46:54.033Z,99.90
2019-05-06T01:51:54.988Z,99.90
2019-05-06T01:56:56.304Z,99.90
2019-05-06T02:02:01.042Z,99.90
2019-05-06T02:07:00.645Z,99.90
2019-05-06T02:12:04.367Z,99.90
2019-05-06T02:17:05.453Z,99.90
2019-05-06T02:22:17.651Z,99.90
2019-05-06T02:27:18.747Z,99.90
2019-05-06T02:32:38.841Z,99.90
2019-05-06T02:37:46.359Z,99.90
2019-05-06T02:42:47.698Z,99.90
2019-05-06T02:47:53.569Z,99.90
2019-05-06T02:52:53.929Z,99.90
2019-05-06T02:57:55.119Z,99.90
2019-05-06T03:02:56.206Z,99.90
2019-05-06T03:07:57.849Z,99.90
2019-05-06T03:12:59.028Z,99.90
2019-05-06T03:18:03.011Z,99.90
2019-05-06T03:23:08.487Z,99.90
2019-05-06T03:28:09.598Z,99.90
2019-05-06T03:38:13.881Z,99.90
2019-05-06T03:43:16.113Z,99.90
2019-05-06T03:48:19.495Z,99.90
2019-05-06T03:53:23.275Z,99.90
2019-05-06T03:58:26.804Z,99.90
2019-05-06T04:03:42.764Z,99.90
2019-05-06T04:08:33.850Z,99.90
2019-05-06T04:13:35.023Z,99.90
2019-05-06T04:18:43.591Z,99.90
2019-05-06T04:23:53.470Z,99.90
2019-05-06T04:28:55.751Z,99.90
2019-05-06T04:34:11.521Z,99.90
2019-05-06T04:39:03.911Z,99.90
2019-05-06T04:44:03.528Z,99.90
2019-05-06T04:49:04.633Z,99.90
2019-05-06T04:54:05.933Z,99.90
2019-05-06T04:59:07.235Z,99.90
2019-05-06T05:04:23.211Z,99.90
2019-05-06T05:09:16.644Z,99.90
2019-05-06T05:14:21.123Z,99.90
2019-05-06T05:19:20.143Z,99.90
2019-05-06T05:24:23.501Z,99.90
2019-05-06T05:29:24.846Z,99.90
2019-05-06T05:34:37.093Z,99.90
2019-05-06T05:39:28.967Z,99.90
2019-05-06T05:44:33.331Z,99.90
2019-05-06T05:49:36.423Z,99.90
2019-05-06T05:54:37.515Z,99.90
2019-05-06T05:59:38.736Z,99.90
2019-05-06T06:04:52.017Z,99.90
2019-05-06T06:09:45.759Z,99.90
2019-05-06T06:14:48.764Z,99.90
2019-05-06T06:19:57.904Z,99.90
2019-05-06T06:24:59.503Z,99.90
2019-05-06T06:30:02.433Z,99.90
2019-05-06T06:35:11.087Z,99.90
2019-05-06T06:40:13.877Z,99.90
2019-05-06T06:45:14.978Z,99.90
2019-05-06T06:50:16.064Z,99.90
2019-05-06T06:55:18.622Z,99.90
2019-05-06T07:00:24.775Z,99.90
2019-05-06T07:05:43.367Z,99.90
2019-05-06T07:10:44.983Z,99.90
2019-05-06T07:15:46.177Z,99.90
2019-05-06T07:20:55.016Z,99.90
2019-05-06T07:25:56.321Z,99.90
2019-05-06T07:31:13.056Z,99.90
2019-05-06T07:36:02.181Z,99.90
2019-05-06T07:41:05.432Z,99.90
2019-05-06T07:46:25.435Z,99.90
2019-05-06T07:51:26.744Z,99.90
2019-05-06T07:56:27.971Z,99.90
2019-05-06T08:01:29.070Z,99.90
2019-05-06T08:06:32.055Z,99.90
2019-05-06T08:11:33.504Z,99.90
2019-05-06T08:16:36.713Z,99.90
2019-05-06T08:21:39.730Z,99.90
2019-05-06T08:26:42.780Z,99.90
2019-05-06T08:31:44.058Z,99.90
2019-05-06T08:36:47.052Z,99.90
2019-05-06T08:41:48.264Z,99.90
2019-05-06T08:46:49.372Z,99.90
2019-05-06T08:51:55.088Z,99.90
2019-05-06T08:56:56.211Z,99.90
2019-05-06T09:01:59.223Z,95.00
2019-05-06T09:07:02.738Z,90.90
2019-05-06T09:12:03.439Z,81.90
2019-05-06T09:17:05.931Z,79.30
2019-05-06T09:22:07.030Z,78.30
2019-05-06T09:27:12.135Z,85.00
2019-05-06T09:32:22.638Z,93.70
2019-05-06T09:37:24.340Z,99.90
2019-05-06T09:42:25.621Z,99.90
2019-05-06T09:47:28.631Z,99.90
2019-05-06T09:52:29.725Z,99.90
2019-05-06T09:57:35.494Z,99.90
2019-05-06T10:02:36.588Z,99.90
2019-05-06T10:07:37.794Z,99.90
2019-05-06T10:12:38.911Z,99.90
2019-05-06T10:17:40.214Z,99.90
2019-05-06T10:22:43.059Z,99.90
2019-05-06T10:27:46.243Z,99.90
2019-05-06T10:32:49.278Z,99.90
2019-05-06T10:38:09.592Z,99.90
2019-05-06T10:43:26.956Z,99.90
2019-05-06T10:48:28.057Z,99.90
2019-05-06T10:53:29.161Z,99.90
2019-05-06T10:58:32.514Z,99.90
2019-05-06T11:03:33.287Z,99.90
2019-05-06T11:08:34.487Z,99.90
2019-05-06T11:13:35.633Z,99.90
2019-05-06T11:18:36.757Z,99.90
2019-05-06T11:23:37.940Z,99.90
2019-05-06T11:28:43.728Z,99.90
2019-05-06T11:33:46.734Z,99.90
2019-05-06T11:38:48.568Z,99.90
2019-05-06T11:43:52.097Z,99.90
2019-05-06T11:48:52.856Z,99.90
2019-05-06T11:53:54.280Z,99.90
2019-05-06T11:58:57.505Z,92.30
2019-05-06T12:03:58.697Z,80.60
2019-05-06T12:09:00.001Z,80.90
2019-05-06T12:14:02.535Z,72.30
2019-05-06T12:19:04.070Z,61.80
2019-05-06T12:24:05.181Z,49.20
2019-05-06T12:29:06.386Z,40.30
2019-05-06T12:34:07.480Z,35.40
2019-05-06T12:39:18.715Z,33.80
2019-05-06T12:44:19.621Z,30.10
2019-05-06T12:49:20.726Z,36.20
2019-05-06T12:54:22.407Z,42.10
2019-05-06T12:59:23.680Z,47.50
2019-05-06T13:04:44.499Z,52.30
2019-05-06T13:09:28.239Z,59.10
2019-05-06T13:14:29.425Z,95.20
2019-05-06T13:19:32.270Z,99.90
2019-05-06T13:24:33.624Z,99.90
2019-05-06T13:29:35.723Z,99.90
2019-05-06T13:34:36.939Z,99.90
2019-05-06T13:39:38.097Z,99.90
2019-05-06T13:44:39.291Z,99.90
2019-05-06T13:49:45.191Z,99.90
2019-05-06T13:54:46.468Z,99.90
2019-05-06T13:59:47.693Z,99.90
2019-05-06T14:04:48.891Z,99.90
2019-05-06T14:09:49.990Z,99.90
2019-05-06T14:14:52.680Z,99.90
2019-05-06T14:19:54.129Z,99.90
2019-05-06T14:25:09.532Z,99.90
2019-05-06T14:30:15.527Z,99.90
2019-05-06T14:35:16.639Z,99.90
2019-05-06T14:40:19.786Z,99.90
2019-05-06T14:45:22.143Z,99.90
2019-05-06T14:50:31.645Z,83.60
2019-05-06T14:55:28.359Z,54.40
2019-05-06T15:00:31.870Z,43.30
2019-05-06T15:05:35.982Z,42.40
2019-05-06T15:10:35.636Z,38.30
2019-05-06T15:15:36.778Z,39.10
2019-05-06T15:20:37.905Z,31.60
2019-05-06T15:25:39.016Z,29.80
2019-05-06T15:31:00.446Z,31.40
2019-05-06T15:36:09.242Z,41.40
2019-05-06T15:41:10.371Z,43.50
2019-05-06T15:46:12.220Z,46.00
2019-05-06T15:51:13.403Z,48.60
2019-05-06T15:56:14.553Z,49.00
2019-05-06T16:01:15.932Z,50.80
2019-05-06T16:06:17.151Z,51.30
2019-05-06T16:11:18.400Z,50.40
2019-05-06T16:16:19.513Z,52.40
2019-05-06T16:21:22.870Z,54.50
2019-05-06T16:26:24.078Z,54.00
2019-05-06T16:31:25.175Z,53.60
2019-05-06T16:36:26.407Z,55.80
2019-05-06T16:41:27.551Z,56.80
2019-05-06T16:46:28.747Z,61.50
2019-05-06T16:51:30.145Z,62.90
2019-05-06T16:56:36.188Z,67.30
2019-05-06T17:01:39.181Z,80.50
2019-05-06T17:06:42.938Z,84.00
2019-05-06T17:11:44.358Z,83.20
2019-05-06T17:16:45.479Z,92.40
2019-05-06T17:21:48.505Z,95.40
2019-05-06T17:26:49.792Z,97.90
2019-05-06T17:31:55.596Z,99.90
2019-05-06T17:36:58.707Z,99.90
2019-05-06T17:42:00.134Z,99.90
2019-05-06T17:47:20.031Z,99.90
2019-05-06T17:52:23.097Z,99.90
2019-05-06T17:57:24.499Z,99.90
2019-05-06T18:02:27.151Z,99.90
2019-05-06T18:07:28.400Z,99.90
2019-05-06T18:12:29.587Z,99.90
2019-05-06T18:17:33.003Z,99.90
2019-05-06T18:22:33.938Z,99.90
2019-05-06T18:27:35.181Z,99.90
2019-05-06T18:32:36.333Z,99.90
2019-05-06T18:37:37.568Z,99.90
2019-05-06T18:42:38.813Z,99.90
2019-05-06T18:47:41.835Z,99.90
2019-05-06T18:52:43.148Z,99.90
2019-05-06T18:57:44.674Z,99.90
2019-05-06T19:02:45.891Z,99.90
2019-05-06T19:07:47.350Z,99.90
2019-05-06T19:12:48.729Z,99.90
2019-05-06T19:17:50.040Z,99.90
2019-05-06T19:22:53.437Z,99.90
2019-05-06T19:27:54.522Z,99.90
2019-05-06T19:32:55.817Z,99.90
2019-05-06T19:37:57.217Z,99.90
2019-05-06T19:42:58.615Z,99.90
2019-05-06T19:47:59.766Z,99.90
2019-05-06T19:53:00.895Z,99.90
2019-05-06T19:58:02.422Z,99.90
2019-05-06T20:03:03.879Z,99.90
2019-05-06T20:08:07.099Z,99.90
2019-05-06T20:13:08.246Z,99.90
2019-05-06T20:18:09.584Z,99.90
2019-05-06T20:23:12.597Z,99.90
2019-05-06T20:28:13.893Z,99.90
2019-05-06T20:33:15.090Z,99.90
2019-05-06T20:38:16.283Z,99.90
2019-05-06T20:43:20.804Z,99.90
2019-05-06T20:48:20.496Z,99.90
2019-05-06T20:53:23.252Z,99.90
2019-05-06T20:58:24.620Z,99.90
2019-05-06T21:03:25.731Z,99.90
2019-05-06T21:08:26.839Z,99.90
2019-05-06T21:13:32.446Z,99.90
2019-05-06T21:18:32.510Z,99.90
2019-05-06T21:23:33.915Z,99.90
2019-05-06T21:28:35.039Z,99.90
2019-05-06T21:33:36.279Z,99.90
2019-05-06T21:38:37.391Z,99.90
2019-05-06T21:43:47.047Z,99.90
2019-05-06T21:48:42.068Z,99.90
2019-05-06T21:53:43.332Z,99.90
2019-05-06T21:58:44.424Z,99.90
2019-05-06T22:03:45.538Z,99.90
2019-05-06T22:08:47.421Z,99.90
2019-05-06T22:14:00.443Z,99.90
2019-05-06T22:18:53.136Z,99.90
2019-05-06T22:23:55.754Z,99.90
2019-05-06T22:28:57.096Z,99.90
2019-05-06T22:33:58.290Z,99.90
2019-05-06T22:38:59.497Z,99.90
2019-05-06T22:44:12.571Z,99.90
2019-05-06T22:49:03.618Z,99.90
2019-05-06T22:54:04.913Z,99.90
2019-05-06T22:59:06.034Z,99.90
2019-05-06T23:04:07.935Z,99.90
2019-05-06T23:09:09.064Z,99.90
2019-05-06T23:14:12.247Z,99.90
2019-05-06T23:19:13.185Z,99.90
2019-05-06T23:24:14.273Z,99.90
2019-05-06T23:29:15.392Z,99.90
2019-05-06T23:34:16.583Z,99.90
2019-05-06T23:39:58.089Z,99.90
2019-05-06T23:45:36.553Z,99.90
2019-05-06T23:51:15.380Z,99.90
2019-05-06T23:56:38.689Z,99.90
